Terminal Aerodrome Forecast
Issued by NWS

Home | Current Version | Previous Version | Text Only | Print | Product List | Glossary Off
Versions: 1 2 3 4 5 6 7 8 9 10 11 12 13 14 15 16 17 18 19 20 21

000
FTUS43 KABR 241700
TAFMBG
TAF
KMBG 241739Z 2418/2518 33018G24KT P6SM FEW200
     FM250000 31007KT P6SM BKN120
     FM251200 17006KT P6SM OVC040=

USA.gov is the U.S. government's official web portal to all federal, state and local government web resources and services.